sensor_id;sensor_type;location;lat;lon;timestamp;temperature;humidity
12901;DHT22;6518;50.930;5.344;2023-12-04T00:00:44;1.80;99.90
12901;DHT22;6518;50.930;5.344;2023-12-04T00:03:11;1.80;99.90
12901;DHT22;6518;50.930;5.344;2023-12-04T00:05:38;1.70;99.90
12901;DHT22;6518;50.930;5.344;2023-12-04T00:08:08;1.70;99.90
12901;DHT22;6518;50.930;5.344;2023-12-04T00:10:36;1.70;99.90
12901;DHT22;6518;50.930;5.344;2023-12-04T00:13:03;1.70;99.90
12901;DHT22;6518;50.930;5.344;2023-12-04T00:15:29;1.70;99.90
12901;DHT22;6518;50.930;5.344;2023-12-04T00:17:57;1.60;99.90
12901;DHT22;6518;50.930;5.344;2023-12-04T00:20:24;1.60;99.90
12901;DHT22;6518;50.930;5.344;2023-12-04T00:22:51;1.60;99.90
12901;DHT22;6518;50.930;5.344;2023-12-04T00:25:18;1.60;99.90
12901;DHT22;6518;50.930;5.344;2023-12-04T00:27:44;1.60;99.90
12901;DHT22;6518;50.930;5.344;2023-12-04T00:30:11;1.70;99.90
12901;DHT22;6518;50.930;5.344;2023-12-04T00:32:38;1.70;99.90
12901;DHT22;6518;50.930;5.344;2023-12-04T00:35:07;1.70;99.90
12901;DHT22;6518;50.930;5.344;2023-12-04T00:37:34;1.80;99.90
12901;DHT22;6518;50.930;5.344;2023-12-04T00:40:05;1.80;99.90
12901;DHT22;6518;50.930;5.344;2023-12-04T00:42:32;1.90;99.90
12901;DHT22;6518;50.930;5.344;2023-12-04T00:44:59;1.90;99.90
12901;DHT22;6518;50.930;5.344;2023-12-04T00:47:26;1.80;99.90
12901;DHT22;6518;50.930;5.344;2023-12-04T00:49:53;1.90;99.90
12901;DHT22;6518;50.930;5.344;2023-12-04T00:52:22;1.80;99.90
12901;DHT22;6518;50.930;5.344;2023-12-04T00:54:49;1.80;99.90
12901;DHT22;6518;50.930;5.344;2023-12-04T00:57:16;1.80;99.90
12901;DHT22;6518;50.930;5.344;2023-12-04T00:59:43;1.70;99.90
12901;DHT22;6518;50.930;5.344;2023-12-04T01:02:10;1.70;99.90
12901;DHT22;6518;50.930;5.344;2023-12-04T01:04:39;1.70;99.90
12901;DHT22;6518;50.930;5.344;2023-12-04T01:07:06;1.70;99.90
12901;DHT22;6518;50.930;5.344;2023-12-04T01:09:36;1.60;99.90
12901;DHT22;6518;50.930;5.344;2023-12-04T01:12:04;1.60;99.90
12901;DHT22;6518;50.930;5.344;2023-12-04T01:14:31;1.50;99.90
12901;DHT22;6518;50.930;5.344;2023-12-04T01:16:58;1.50;99.90
12901;DHT22;6518;50.930;5.344;2023-12-04T01:19:25;1.50;99.90
12901;DHT22;6518;50.930;5.344;2023-12-04T01:21:52;1.50;99.90
12901;DHT22;6518;50.930;5.344;2023-12-04T01:24:19;1.50;99.90
12901;DHT22;6518;50.930;5.344;2023-12-04T01:26:48;1.60;99.90
12901;DHT22;6518;50.930;5.344;2023-12-04T01:29:15;1.60;99.90
12901;DHT22;6518;50.930;5.344;2023-12-04T01:31:42;1.70;99.90
12901;DHT22;6518;50.930;5.344;2023-12-04T01:34:09;1.70;99.90
12901;DHT22;6518;50.930;5.344;2023-12-04T01:36:39;1.70;99.90
12901;DHT22;6518;50.930;5.344;2023-12-04T01:39:06;1.60;99.90
12901;DHT22;6518;50.930;5.344;2023-12-04T01:41:33;1.60;99.90
12901;DHT22;6518;50.930;5.344;2023-12-04T01:44:01;1.50;99.90
12901;DHT22;6518;50.930;5.344;2023-12-04T01:46:29;1.50;99.90
12901;DHT22;6518;50.930;5.344;2023-12-04T01:48:56;1.50;99.90
12901;DHT22;6518;50.930;5.344;2023-12-04T01:51:23;1.40;99.90
12901;DHT22;6518;50.930;5.344;2023-12-04T01:53:51;1.40;99.90
12901;DHT22;6518;50.930;5.344;2023-12-04T01:56:18;1.40;99.90
12901;DHT22;6518;50.930;5.344;2023-12-04T01:58:46;1.30;99.90
12901;DHT22;6518;50.930;5.344;2023-12-04T02:01:15;1.30;99.90
12901;DHT22;6518;50.930;5.344;2023-12-04T02:03:42;1.30;99.90
12901;DHT22;6518;50.930;5.344;2023-12-04T02:06:09;1.20;99.90
12901;DHT22;6518;50.930;5.344;2023-12-04T02:08:38;1.20;99.90
12901;DHT22;6518;50.930;5.344;2023-12-04T02:11:07;1.20;99.90
12901;DHT22;6518;50.930;5.344;2023-12-04T02:13:33;1.30;99.90
12901;DHT22;6518;50.930;5.344;2023-12-04T02:16:03;1.40;99.90
12901;DHT22;6518;50.930;5.344;2023-12-04T02:18:34;1.50;99.90
12901;DHT22;6518;50.930;5.344;2023-12-04T02:21:01;1.50;99.90
12901;DHT22;6518;50.930;5.344;2023-12-04T02:23:28;1.60;99.90
12901;DHT22;6518;50.930;5.344;2023-12-04T02:26:00;1.60;99.90
12901;DHT22;6518;50.930;5.344;2023-12-04T02:28:34;1.50;99.90
12901;DHT22;6518;50.930;5.344;2023-12-04T02:31:04;1.50;99.90
12901;DHT22;6518;50.930;5.344;2023-12-04T02:33:33;1.50;99.90
12901;DHT22;6518;50.930;5.344;2023-12-04T02:36:02;1.40;99.90
12901;DHT22;6518;50.930;5.344;2023-12-04T02:38:31;1.40;99.90
12901;DHT22;6518;50.930;5.344;2023-12-04T02:40:59;1.40;99.90
12901;DHT22;6518;50.930;5.344;2023-12-04T02:43:26;1.40;99.90
12901;DHT22;6518;50.930;5.344;2023-12-04T02:45:53;1.40;99.90
12901;DHT22;6518;50.930;5.344;2023-12-04T02:48:20;1.40;99.90
12901;DHT22;6518;50.930;5.344;2023-12-04T02:50:46;1.30;99.90
12901;DHT22;6518;50.930;5.344;2023-12-04T02:53:13;1.40;99.90
12901;DHT22;6518;50.930;5.344;2023-12-04T02:55:40;1.40;99.90
12901;DHT22;6518;50.930;5.344;2023-12-04T02:58:09;1.40;99.90
12901;DHT22;6518;50.930;5.344;2023-12-04T03:00:36;1.40;99.90
12901;DHT22;6518;50.930;5.344;2023-12-04T03:03:02;1.40;99.90
12901;DHT22;6518;50.930;5.344;2023-12-04T03:05:29;1.50;99.90
12901;DHT22;6518;50.930;5.344;2023-12-04T03:07:57;1.60;99.90
12901;DHT22;6518;50.930;5.344;2023-12-04T03:10:24;1.70;99.90
12901;DHT22;6518;50.930;5.344;2023-12-04T03:12:51;1.70;99.90
12901;DHT22;6518;50.930;5.344;2023-12-04T03:15:19;1.70;99.90
12901;DHT22;6518;50.930;5.344;2023-12-04T03:17:46;1.70;99.90
12901;DHT22;6518;50.930;5.344;2023-12-04T03:20:13;1.70;99.90
12901;DHT22;6518;50.930;5.344;2023-12-04T03:22:40;1.70;99.90
12901;DHT22;6518;50.930;5.344;2023-12-04T03:25:07;1.60;99.90
12901;DHT22;6518;50.930;5.344;2023-12-04T03:27:35;1.60;99.90
12901;DHT22;6518;50.930;5.344;2023-12-04T03:30:05;1.60;99.90
12901;DHT22;6518;50.930;5.344;2023-12-04T03:32:33;1.60;99.90
12901;DHT22;6518;50.930;5.344;2023-12-04T03:35:00;1.50;99.90
12901;DHT22;6518;50.930;5.344;2023-12-04T03:37:28;1.50;99.90
12901;DHT22;6518;50.930;5.344;2023-12-04T03:39:55;1.50;99.90
12901;DHT22;6518;50.930;5.344;2023-12-04T03:42:22;1.50;99.90
12901;DHT22;6518;50.930;5.344;2023-12-04T03:44:49;1.50;99.90
12901;DHT22;6518;50.930;5.344;2023-12-04T03:47:22;1.50;99.90
12901;DHT22;6518;50.930;5.344;2023-12-04T03:49:52;1.50;99.90
12901;DHT22;6518;50.930;5.344;2023-12-04T03:52:19;1.50;99.90
12901;DHT22;6518;50.930;5.344;2023-12-04T03:54:46;1.60;99.90
12901;DHT22;6518;50.930;5.344;2023-12-04T03:57:13;1.70;99.90
12901;DHT22;6518;50.930;5.344;2023-12-04T03:59:40;1.80;99.90
12901;DHT22;6518;50.930;5.344;2023-12-04T04:02:07;1.80;99.90
12901;DHT22;6518;50.930;5.344;2023-12-04T04:04:33;1.80;99.90
12901;DHT22;6518;50.930;5.344;2023-12-04T04:07:02;1.80;99.90
12901;DHT22;6518;50.930;5.344;2023-12-04T04:09:29;1.80;99.90
12901;DHT22;6518;50.930;5.344;2023-12-04T04:11:56;1.70;99.90
12901;DHT22;6518;50.930;5.344;2023-12-04T04:14:23;1.70;99.90
12901;DHT22;6518;50.930;5.344;2023-12-04T04:16:50;1.60;99.90
12901;DHT22;6518;50.930;5.344;2023-12-04T04:19:17;1.60;99.90
12901;DHT22;6518;50.930;5.344;2023-12-04T04:21:44;1.60;99.90
12901;DHT22;6518;50.930;5.344;2023-12-04T04:24:12;1.60;99.90
12901;DHT22;6518;50.930;5.344;2023-12-04T04:26:39;1.50;99.90
12901;DHT22;6518;50.930;5.344;2023-12-04T04:29:06;1.40;99.90
12901;DHT22;6518;50.930;5.344;2023-12-04T04:31:33;1.40;99.90
12901;DHT22;6518;50.930;5.344;2023-12-04T04:34:00;1.40;99.90
12901;DHT22;6518;50.930;5.344;2023-12-04T04:36:27;1.50;99.90
12901;DHT22;6518;50.930;5.344;2023-12-04T04:38:54;1.40;99.90
12901;DHT22;6518;50.930;5.344;2023-12-04T04:41:23;1.40;99.90
12901;DHT22;6518;50.930;5.344;2023-12-04T04:43:50;1.40;99.90
12901;DHT22;6518;50.930;5.344;2023-12-04T04:46:16;1.60;99.90
12901;DHT22;6518;50.930;5.344;2023-12-04T04:48:43;1.70;99.90
12901;DHT22;6518;50.930;5.344;2023-12-04T04:51:10;1.70;99.90
12901;DHT22;6518;50.930;5.344;2023-12-04T04:53:38;1.70;99.90
12901;DHT22;6518;50.930;5.344;2023-12-04T04:56:07;1.70;99.90
12901;DHT22;6518;50.930;5.344;2023-12-04T04:58:36;1.70;99.90
12901;DHT22;6518;50.930;5.344;2023-12-04T05:01:03;1.70;99.90
12901;DHT22;6518;50.930;5.344;2023-12-04T05:03:30;1.60;99.90
12901;DHT22;6518;50.930;5.344;2023-12-04T05:05:57;1.60;99.90
12901;DHT22;6518;50.930;5.344;2023-12-04T05:08:24;1.50;99.90
12901;DHT22;6518;50.930;5.344;2023-12-04T05:10:51;1.50;99.90
12901;DHT22;6518;50.930;5.344;2023-12-04T05:13:18;1.50;99.90
12901;DHT22;6518;50.930;5.344;2023-12-04T05:15:46;1.50;99.90
12901;DHT22;6518;50.930;5.344;2023-12-04T05:18:13;1.50;99.90
12901;DHT22;6518;50.930;5.344;2023-12-04T05:20:40;1.50;99.90
12901;DHT22;6518;50.930;5.344;2023-12-04T05:23:07;1.50;99.90
12901;DHT22;6518;50.930;5.344;2023-12-04T05:25:34;1.50;99.90
12901;DHT22;6518;50.930;5.344;2023-12-04T05:28:01;1.50;99.90
12901;DHT22;6518;50.930;5.344;2023-12-04T05:30:28;1.50;99.90
12901;DHT22;6518;50.930;5.344;2023-12-04T05:32:56;1.50;99.90
12901;DHT22;6518;50.930;5.344;2023-12-04T05:35:23;1.60;99.90
12901;DHT22;6518;50.930;5.344;2023-12-04T05:37:50;1.80;99.90
12901;DHT22;6518;50.930;5.344;2023-12-04T05:40:17;1.90;99.50
12901;DHT22;6518;50.930;5.344;2023-12-04T05:42:44;1.90;98.70
12901;DHT22;6518;50.930;5.344;2023-12-04T05:45:11;1.90;98.40
12901;DHT22;6518;50.930;5.344;2023-12-04T05:47:38;2.00;97.20
12901;DHT22;6518;50.930;5.344;2023-12-04T05:50:07;2.10;97.20
12901;DHT22;6518;50.930;5.344;2023-12-04T05:52:34;2.20;96.70
12901;DHT22;6518;50.930;5.344;2023-12-04T05:55:01;2.20;95.00
12901;DHT22;6518;50.930;5.344;2023-12-04T05:57:29;2.30;95.30
12901;DHT22;6518;50.930;5.344;2023-12-04T05:59:56;2.30;95.10
12901;DHT22;6518;50.930;5.344;2023-12-04T06:02:23;2.40;94.60
12901;DHT22;6518;50.930;5.344;2023-12-04T06:04:50;2.40;94.20
12901;DHT22;6518;50.930;5.344;2023-12-04T06:07:18;2.40;94.30
12901;DHT22;6518;50.930;5.344;2023-12-04T06:09:45;2.40;94.10
12901;DHT22;6518;50.930;5.344;2023-12-04T06:12:12;2.40;94.10
12901;DHT22;6518;50.930;5.344;2023-12-04T06:14:39;2.40;93.80
12901;DHT22;6518;50.930;5.344;2023-12-04T06:17:07;2.50;93.50
12901;DHT22;6518;50.930;5.344;2023-12-04T06:19:34;2.50;93.90
12901;DHT22;6518;50.930;5.344;2023-12-04T06:22:01;2.50;93.40
12901;DHT22;6518;50.930;5.344;2023-12-04T06:24:30;2.50;92.30
12901;DHT22;6518;50.930;5.344;2023-12-04T06:26:58;2.50;92.80
12901;DHT22;6518;50.930;5.344;2023-12-04T06:29:26;2.50;92.60
12901;DHT22;6518;50.930;5.344;2023-12-04T06:31:53;2.50;92.50
12901;DHT22;6518;50.930;5.344;2023-12-04T06:34:22;2.50;92.50
12901;DHT22;6518;50.930;5.344;2023-12-04T06:36:49;2.60;92.50
12901;DHT22;6518;50.930;5.344;2023-12-04T06:39:17;2.60;92.40
12901;DHT22;6518;50.930;5.344;2023-12-04T06:41:46;2.60;92.10
12901;DHT22;6518;50.930;5.344;2023-12-04T06:44:14;2.60;91.90
12901;DHT22;6518;50.930;5.344;2023-12-04T06:46:41;2.60;91.20
12901;DHT22;6518;50.930;5.344;2023-12-04T06:49:13;2.70;91.20
12901;DHT22;6518;50.930;5.344;2023-12-04T06:51:41;2.70;91.20
12901;DHT22;6518;50.930;5.344;2023-12-04T06:54:08;2.70;90.70
12901;DHT22;6518;50.930;5.344;2023-12-04T06:56:36;2.80;90.40
12901;DHT22;6518;50.930;5.344;2023-12-04T06:59:05;2.80;90.10
12901;DHT22;6518;50.930;5.344;2023-12-04T07:01:32;2.80;89.80
12901;DHT22;6518;50.930;5.344;2023-12-04T07:03:59;2.90;89.80
12901;DHT22;6518;50.930;5.344;2023-12-04T07:06:26;2.90;90.00
12901;DHT22;6518;50.930;5.344;2023-12-04T07:08:53;2.90;89.40
12901;DHT22;6518;50.930;5.344;2023-12-04T07:11:20;3.00;89.10
12901;DHT22;6518;50.930;5.344;2023-12-04T07:13:46;3.00;89.10
12901;DHT22;6518;50.930;5.344;2023-12-04T07:16:15;3.00;88.80
12901;DHT22;6518;50.930;5.344;2023-12-04T07:18:43;3.10;88.70
12901;DHT22;6518;50.930;5.344;2023-12-04T07:21:13;3.10;88.30
12901;DHT22;6518;50.930;5.344;2023-12-04T07:23:40;3.10;88.60
12901;DHT22;6518;50.930;5.344;2023-12-04T07:26:08;3.10;88.40
12901;DHT22;6518;50.930;5.344;2023-12-04T07:28:35;3.10;87.70
12901;DHT22;6518;50.930;5.344;2023-12-04T07:31:02;3.10;88.40
12901;DHT22;6518;50.930;5.344;2023-12-04T07:33:30;3.10;87.60
12901;DHT22;6518;50.930;5.344;2023-12-04T07:35:57;3.10;88.00
12901;DHT22;6518;50.930;5.344;2023-12-04T07:38:25;3.20;87.50
12901;DHT22;6518;50.930;5.344;2023-12-04T07:40:53;3.10;87.10
12901;DHT22;6518;50.930;5.344;2023-12-04T07:43:19;3.20;87.70
12901;DHT22;6518;50.930;5.344;2023-12-04T07:45:46;3.20;87.00
12901;DHT22;6518;50.930;5.344;2023-12-04T07:48:13;3.20;87.60
12901;DHT22;6518;50.930;5.344;2023-12-04T07:50:42;3.20;87.10
12901;DHT22;6518;50.930;5.344;2023-12-04T07:53:09;3.20;86.60
12901;DHT22;6518;50.930;5.344;2023-12-04T07:55:37;3.30;88.90
12901;DHT22;6518;50.930;5.344;2023-12-04T07:58:04;3.40;87.40
12901;DHT22;6518;50.930;5.344;2023-12-04T08:00:31;3.40;86.00
12901;DHT22;6518;50.930;5.344;2023-12-04T08:02:58;3.40;86.30
12901;DHT22;6518;50.930;5.344;2023-12-04T08:05:25;3.40;86.30
12901;DHT22;6518;50.930;5.344;2023-12-04T08:07:54;3.40;86.20
12901;DHT22;6518;50.930;5.344;2023-12-04T08:10:22;3.40;86.50
12901;DHT22;6518;50.930;5.344;2023-12-04T08:12:49;3.40;85.20
12901;DHT22;6518;50.930;5.344;2023-12-04T08:15:16;3.40;86.30
12901;DHT22;6518;50.930;5.344;2023-12-04T08:17:43;3.40;85.80
12901;DHT22;6518;50.930;5.344;2023-12-04T08:20:11;3.30;85.50
12901;DHT22;6518;50.930;5.344;2023-12-04T08:22:39;3.40;85.20
12901;DHT22;6518;50.930;5.344;2023-12-04T08:25:08;3.40;85.50
12901;DHT22;6518;50.930;5.344;2023-12-04T08:27:35;3.40;85.70
12901;DHT22;6518;50.930;5.344;2023-12-04T08:30:04;3.40;85.50
12901;DHT22;6518;50.930;5.344;2023-12-04T08:32:31;3.40;85.90
12901;DHT22;6518;50.930;5.344;2023-12-04T08:34:58;3.40;85.50
12901;DHT22;6518;50.930;5.344;2023-12-04T08:37:25;3.40;85.50
12901;DHT22;6518;50.930;5.344;2023-12-04T08:39:52;3.40;85.20
12901;DHT22;6518;50.930;5.344;2023-12-04T08:42:20;3.50;85.40
12901;DHT22;6518;50.930;5.344;2023-12-04T08:44:47;3.50;85.40
12901;DHT22;6518;50.930;5.344;2023-12-04T08:47:14;3.50;85.50
12901;DHT22;6518;50.930;5.344;2023-12-04T08:49:41;3.50;85.70
12901;DHT22;6518;50.930;5.344;2023-12-04T08:52:08;3.50;85.50
12901;DHT22;6518;50.930;5.344;2023-12-04T08:54:38;3.60;86.00
12901;DHT22;6518;50.930;5.344;2023-12-04T08:57:11;3.60;86.50
12901;DHT22;6518;50.930;5.344;2023-12-04T08:59:39;3.70;86.60
12901;DHT22;6518;50.930;5.344;2023-12-04T09:02:06;3.70;86.30
12901;DHT22;6518;50.930;5.344;2023-12-04T09:04:33;3.70;85.40
12901;DHT22;6518;50.930;5.344;2023-12-04T09:07:00;3.80;85.70
12901;DHT22;6518;50.930;5.344;2023-12-04T09:09:27;3.80;84.80
12901;DHT22;6518;50.930;5.344;2023-12-04T09:11:54;3.80;85.30
12901;DHT22;6518;50.930;5.344;2023-12-04T09:14:21;3.80;85.20
12901;DHT22;6518;50.930;5.344;2023-12-04T09:16:49;3.80;85.30
12901;DHT22;6518;50.930;5.344;2023-12-04T09:19:16;3.80;84.50
12901;DHT22;6518;50.930;5.344;2023-12-04T09:21:44;3.80;84.20
12901;DHT22;6518;50.930;5.344;2023-12-04T09:24:13;3.80;84.40
12901;DHT22;6518;50.930;5.344;2023-12-04T09:26:40;3.70;84.10
12901;DHT22;6518;50.930;5.344;2023-12-04T09:29:11;3.70;84.30
12901;DHT22;6518;50.930;5.344;2023-12-04T09:31:38;3.70;84.50
12901;DHT22;6518;50.930;5.344;2023-12-04T09:34:06;3.70;84.70
12901;DHT22;6518;50.930;5.344;2023-12-04T09:36:33;3.70;84.50
12901;DHT22;6518;50.930;5.344;2023-12-04T09:39:01;3.70;84.70
12901;DHT22;6518;50.930;5.344;2023-12-04T09:41:29;3.70;84.70
12901;DHT22;6518;50.930;5.344;2023-12-04T09:43:57;3.70;84.90
12901;DHT22;6518;50.930;5.344;2023-12-04T09:46:24;3.70;85.30
12901;DHT22;6518;50.930;5.344;2023-12-04T09:48:53;3.80;86.00
12901;DHT22;6518;50.930;5.344;2023-12-04T09:51:22;3.80;86.20
12901;DHT22;6518;50.930;5.344;2023-12-04T09:53:51;3.80;86.70
12901;DHT22;6518;50.930;5.344;2023-12-04T09:56:20;3.80;87.30
12901;DHT22;6518;50.930;5.344;2023-12-04T09:58:52;3.70;87.60
12901;DHT22;6518;50.930;5.344;2023-12-04T10:01:20;3.70;88.80
12901;DHT22;6518;50.930;5.344;2023-12-04T10:03:48;3.80;88.50
12901;DHT22;6518;50.930;5.344;2023-12-04T10:06:15;3.80;88.90
12901;DHT22;6518;50.930;5.344;2023-12-04T10:08:48;3.80;89.10
12901;DHT22;6518;50.930;5.344;2023-12-04T10:11:15;3.80;89.30
12901;DHT22;6518;50.930;5.344;2023-12-04T10:13:41;3.80;89.50
12901;DHT22;6518;50.930;5.344;2023-12-04T10:16:09;3.80;90.00
12901;DHT22;6518;50.930;5.344;2023-12-04T10:18:36;3.80;90.20
12901;DHT22;6518;50.930;5.344;2023-12-04T10:21:03;3.70;90.80
12901;DHT22;6518;50.930;5.344;2023-12-04T10:23:37;3.70;90.80
12901;DHT22;6518;50.930;5.344;2023-12-04T10:26:06;3.70;91.40
12901;DHT22;6518;50.930;5.344;2023-12-04T10:28:34;3.70;91.30
12901;DHT22;6518;50.930;5.344;2023-12-04T10:31:01;3.70;91.60
12901;DHT22;6518;50.930;5.344;2023-12-04T10:33:29;3.70;91.90
12901;DHT22;6518;50.930;5.344;2023-12-04T10:35:56;3.70;92.20
12901;DHT22;6518;50.930;5.344;2023-12-04T10:38:23;3.70;92.50
12901;DHT22;6518;50.930;5.344;2023-12-04T10:40:52;3.70;93.00
12901;DHT22;6518;50.930;5.344;2023-12-04T10:43:22;3.70;93.50
12901;DHT22;6518;50.930;5.344;2023-12-04T10:45:50;3.60;93.90
12901;DHT22;6518;50.930;5.344;2023-12-04T10:48:18;3.60;94.20
12901;DHT22;6518;50.930;5.344;2023-12-04T10:50:46;3.60;94.60
12901;DHT22;6518;50.930;5.344;2023-12-04T10:53:16;3.60;95.20
12901;DHT22;6518;50.930;5.344;2023-12-04T10:55:44;3.60;95.60
12901;DHT22;6518;50.930;5.344;2023-12-04T10:58:13;3.60;96.10
12901;DHT22;6518;50.930;5.344;2023-12-04T11:00:45;3.50;96.60
12901;DHT22;6518;50.930;5.344;2023-12-04T11:03:19;3.50;97.30
12901;DHT22;6518;50.930;5.344;2023-12-04T11:05:55;3.50;97.80
12901;DHT22;6518;50.930;5.344;2023-12-04T11:08:23;3.50;98.50
12901;DHT22;6518;50.930;5.344;2023-12-04T11:10:57;3.50;98.90
12901;DHT22;6518;50.930;5.344;2023-12-04T11:13:28;3.50;99.90
12901;DHT22;6518;50.930;5.344;2023-12-04T11:16:00;3.60;99.90
12901;DHT22;6518;50.930;5.344;2023-12-04T11:18:31;3.60;99.90
12901;DHT22;6518;50.930;5.344;2023-12-04T11:21:07;3.70;99.90
12901;DHT22;6518;50.930;5.344;2023-12-04T11:23:35;3.70;99.90
12901;DHT22;6518;50.930;5.344;2023-12-04T11:26:04;3.80;99.90
12901;DHT22;6518;50.930;5.344;2023-12-04T11:28:32;3.90;99.90
12901;DHT22;6518;50.930;5.344;2023-12-04T11:31:10;4.00;99.90
12901;DHT22;6518;50.930;5.344;2023-12-04T11:33:38;4.10;99.90
12901;DHT22;6518;50.930;5.344;2023-12-04T11:36:09;4.10;99.90
12901;DHT22;6518;50.930;5.344;2023-12-04T11:38:40;4.10;99.90
12901;DHT22;6518;50.930;5.344;2023-12-04T11:41:15;4.10;99.90
12901;DHT22;6518;50.930;5.344;2023-12-04T11:43:44;4.20;99.90
12901;DHT22;6518;50.930;5.344;2023-12-04T11:46:14;4.20;99.90
12901;DHT22;6518;50.930;5.344;2023-12-04T11:48:47;4.20;99.90
12901;DHT22;6518;50.930;5.344;2023-12-04T11:51:18;4.20;99.90
12901;DHT22;6518;50.930;5.344;2023-12-04T11:54:08;4.20;99.90
12901;DHT22;6518;50.930;5.344;2023-12-04T11:56:35;4.20;99.90
12901;DHT22;6518;50.930;5.344;2023-12-04T11:59:03;4.20;99.90
12901;DHT22;6518;50.930;5.344;2023-12-04T12:01:36;4.20;99.90
12901;DHT22;6518;50.930;5.344;2023-12-04T12:04:05;4.20;99.90
12901;DHT22;6518;50.930;5.344;2023-12-04T12:06:32;4.20;99.90
12901;DHT22;6518;50.930;5.344;2023-12-04T12:08:59;4.30;99.90
12901;DHT22;6518;50.930;5.344;2023-12-04T12:11:26;4.20;99.90
12901;DHT22;6518;50.930;5.344;2023-12-04T12:13:53;4.20;99.90
12901;DHT22;6518;50.930;5.344;2023-12-04T12:16:20;4.20;99.90
12901;DHT22;6518;50.930;5.344;2023-12-04T12:18:49;4.20;99.90
12901;DHT22;6518;50.930;5.344;2023-12-04T12:21:16;4.20;99.90
12901;DHT22;6518;50.930;5.344;2023-12-04T12:23:44;4.20;99.90
12901;DHT22;6518;50.930;5.344;2023-12-04T12:26:11;4.20;99.90
12901;DHT22;6518;50.930;5.344;2023-12-04T12:28:38;4.10;99.90
12901;DHT22;6518;50.930;5.344;2023-12-04T12:31:06;4.10;99.90
12901;DHT22;6518;50.930;5.344;2023-12-04T12:33:33;4.10;99.90
12901;DHT22;6518;50.930;5.344;2023-12-04T12:36:01;4.10;99.90
12901;DHT22;6518;50.930;5.344;2023-12-04T12:38:29;4.10;99.90
12901;DHT22;6518;50.930;5.344;2023-12-04T12:41:00;4.00;99.90
12901;DHT22;6518;50.930;5.344;2023-12-04T12:43:28;4.00;99.90
12901;DHT22;6518;50.930;5.344;2023-12-04T12:45:55;4.00;99.90
12901;DHT22;6518;50.930;5.344;2023-12-04T12:48:22;4.00;99.90
12901;DHT22;6518;50.930;5.344;2023-12-04T12:50:49;4.00;99.90
12901;DHT22;6518;50.930;5.344;2023-12-04T12:53:17;4.00;99.90
12901;DHT22;6518;50.930;5.344;2023-12-04T12:55:44;4.00;99.90
12901;DHT22;6518;50.930;5.344;2023-12-04T12:58:11;4.10;99.90
12901;DHT22;6518;50.930;5.344;2023-12-04T13:00:40;4.10;99.90
12901;DHT22;6518;50.930;5.344;2023-12-04T13:03:14;4.10;99.90
12901;DHT22;6518;50.930;5.344;2023-12-04T13:05:41;4.10;99.90
12901;DHT22;6518;50.930;5.344;2023-12-04T13:08:08;4.00;99.90
12901;DHT22;6518;50.930;5.344;2023-12-04T13:10:38;4.00;99.90
12901;DHT22;6518;50.930;5.344;2023-12-04T13:13:09;4.00;99.90
12901;DHT22;6518;50.930;5.344;2023-12-04T13:15:36;4.10;99.90
12901;DHT22;6518;50.930;5.344;2023-12-04T13:18:03;4.10;99.90
12901;DHT22;6518;50.930;5.344;2023-12-04T13:20:30;4.10;99.90
12901;DHT22;6518;50.930;5.344;2023-12-04T13:22:57;4.10;99.90
12901;DHT22;6518;50.930;5.344;2023-12-04T13:25:24;4.10;99.90
12901;DHT22;6518;50.930;5.344;2023-12-04T13:27:53;4.10;99.90
12901;DHT22;6518;50.930;5.344;2023-12-04T13:30:20;4.10;99.90
12901;DHT22;6518;50.930;5.344;2023-12-04T13:32:47;4.10;99.90
12901;DHT22;6518;50.930;5.344;2023-12-04T13:35:15;4.10;99.90
12901;DHT22;6518;50.930;5.344;2023-12-04T13:37:43;4.10;99.90
12901;DHT22;6518;50.930;5.344;2023-12-04T13:40:11;4.10;99.90
12901;DHT22;6518;50.930;5.344;2023-12-04T13:42:41;4.10;99.90
12901;DHT22;6518;50.930;5.344;2023-12-04T13:45:35;4.10;99.90
12901;DHT22;6518;50.930;5.344;2023-12-04T13:48:03;4.10;99.90
12901;DHT22;6518;50.930;5.344;2023-12-04T13:50:30;4.10;99.90
12901;DHT22;6518;50.930;5.344;2023-12-04T13:52:57;4.10;99.90
12901;DHT22;6518;50.930;5.344;2023-12-04T13:55:24;4.10;99.90
12901;DHT22;6518;50.930;5.344;2023-12-04T13:58:07;4.10;99.90
12901;DHT22;6518;50.930;5.344;2023-12-04T14:00:42;4.10;99.90
12901;DHT22;6518;50.930;5.344;2023-12-04T14:03:09;4.10;99.90
12901;DHT22;6518;50.930;5.344;2023-12-04T14:05:36;4.10;99.90
12901;DHT22;6518;50.930;5.344;2023-12-04T14:08:03;4.10;99.90
12901;DHT22;6518;50.930;5.344;2023-12-04T14:10:30;4.10;99.90
12901;DHT22;6518;50.930;5.344;2023-12-04T14:12:57;4.10;99.90
12901;DHT22;6518;50.930;5.344;2023-12-04T14:15:24;4.10;99.90
12901;DHT22;6518;50.930;5.344;2023-12-04T14:17:52;4.10;99.90
12901;DHT22;6518;50.930;5.344;2023-12-04T14:20:20;4.10;99.90
12901;DHT22;6518;50.930;5.344;2023-12-04T14:22:47;4.10;99.90
12901;DHT22;6518;50.930;5.344;2023-12-04T14:25:14;4.10;99.90
12901;DHT22;6518;50.930;5.344;2023-12-04T14:27:41;4.10;99.90
12901;DHT22;6518;50.930;5.344;2023-12-04T14:30:11;4.10;99.90
12901;DHT22;6518;50.930;5.344;2023-12-04T14:32:38;4.10;99.90
12901;DHT22;6518;50.930;5.344;2023-12-04T14:35:08;4.10;99.90
12901;DHT22;6518;50.930;5.344;2023-12-04T14:37:36;4.10;99.90
12901;DHT22;6518;50.930;5.344;2023-12-04T14:40:04;4.10;99.90
12901;DHT22;6518;50.930;5.344;2023-12-04T14:42:31;4.00;99.90
12901;DHT22;6518;50.930;5.344;2023-12-04T14:44:58;4.00;99.90
12901;DHT22;6518;50.930;5.344;2023-12-04T14:47:25;4.00;99.90
12901;DHT22;6518;50.930;5.344;2023-12-04T14:49:53;4.00;99.90
12901;DHT22;6518;50.930;5.344;2023-12-04T14:52:23;4.00;99.90
12901;DHT22;6518;50.930;5.344;2023-12-04T14:54:53;4.00;99.90
12901;DHT22;6518;50.930;5.344;2023-12-04T14:57:44;4.00;99.90
12901;DHT22;6518;50.930;5.344;2023-12-04T15:00:40;4.00;99.90
12901;DHT22;6518;50.930;5.344;2023-12-04T15:03:26;4.00;99.90
12901;DHT22;6518;50.930;5.344;2023-12-04T15:06:07;4.00;99.90
12901;DHT22;6518;50.930;5.344;2023-12-04T15:09:02;4.10;99.90
12901;DHT22;6518;50.930;5.344;2023-12-04T15:11:47;4.10;99.90
12901;DHT22;6518;50.930;5.344;2023-12-04T15:14:40;4.10;99.90
12901;DHT22;6518;50.930;5.344;2023-12-04T15:17:14;4.10;99.90
12901;DHT22;6518;50.930;5.344;2023-12-04T15:19:54;4.00;99.90
12901;DHT22;6518;50.930;5.344;2023-12-04T15:22:46;4.00;99.90
12901;DHT22;6518;50.930;5.344;2023-12-04T15:25:15;4.00;99.90
12901;DHT22;6518;50.930;5.344;2023-12-04T15:27:44;4.00;99.90
12901;DHT22;6518;50.930;5.344;2023-12-04T15:30:10;4.00;99.90
12901;DHT22;6518;50.930;5.344;2023-12-04T15:32:38;4.00;99.90
12901;DHT22;6518;50.930;5.344;2023-12-04T15:35:05;4.00;99.90
12901;DHT22;6518;50.930;5.344;2023-12-04T15:37:32;4.00;99.90
12901;DHT22;6518;50.930;5.344;2023-12-04T15:39:58;4.00;99.90
12901;DHT22;6518;50.930;5.344;2023-12-04T15:42:26;4.00;99.90
12901;DHT22;6518;50.930;5.344;2023-12-04T15:44:54;4.00;99.90
12901;DHT22;6518;50.930;5.344;2023-12-04T15:47:21;4.00;99.90
12901;DHT22;6518;50.930;5.344;2023-12-04T15:49:47;4.10;99.90
12901;DHT22;6518;50.930;5.344;2023-12-04T15:52:14;4.00;99.90
12901;DHT22;6518;50.930;5.344;2023-12-04T15:54:44;4.10;99.90
12901;DHT22;6518;50.930;5.344;2023-12-04T15:57:11;4.10;99.90
12901;DHT22;6518;50.930;5.344;2023-12-04T15:59:38;4.10;99.90
12901;DHT22;6518;50.930;5.344;2023-12-04T16:02:05;4.10;99.90
12901;DHT22;6518;50.930;5.344;2023-12-04T16:04:31;4.20;99.90
12901;DHT22;6518;50.930;5.344;2023-12-04T16:06:58;4.20;99.90
12901;DHT22;6518;50.930;5.344;2023-12-04T16:09:25;4.10;99.90